Terminal Aerodrome Forecast
Issued by NWS

Home | Current Version | Previous Version | Text Only | Print | Product List | Glossary On
Versions: 1 2 3 4 5 6 7 8 9 10 11 12 13 14
336
FTPA31 PHFO 301729
TAFHKO
TAF
PHKO 301729Z 3018/0118 21005KT P6SM SCT060
     FM302000 24010KT P6SM FEW030 SCT060
     FM010400 19006KT P6SM FEW030 BKN060
     FM010800 11005KT P6SM SCT060=

USA.gov is the U.S. government's official web portal to all federal, state and local government web resources and services.